^^
Station Historical Data
Daily Summary for January 14, 2020 Units:  English    Metric   Both
« Previous Day
Next Day »
Daily Weekly Monthly Yearly Custom
  High: Low: Average:
Temperature: 2 °F -12 °F -6.8 °F
Dew Point: -1.8 °F -18 °F -13 °F
Humidity: 84% 67% 74%
Wind Speed: 20mph 3mph 10.2mph
Wind Gust: 26mph - -
Wind- - West
Pressure: 30.34 in 30.07 in -
Precipitation: 0 in    
Historical Graphs
 
 
Tabular Data for January 14, 2020
Time Temperature Dew Point Pressure Wind Wind Speed Wind Gust Humidity Rainfall Rate (Hourly) solar Conditions
00:00 2 °F -2 °F 30.08 in WNW 12 mph 20 mph 83% 0 in 0.00 W/m2
00:05 1.9 °F -1.8 °F 30.07 in NW 11 mph 20 mph 84% 0 in 0.00 W/m2
00:10 1.6 °F -2.4 °F 30.07 in WNW 16 mph 19 mph 83% 0 in 0.00 W/m2
00:15 1.5 °F -2.5 °F 30.07 in NW 17 mph 19 mph 83% 0 in 0.00 W/m2
00:20 1.3 °F -2.7 °F 30.07 in WNW 9 mph 18 mph 83% 0 in 0.00 W/m2
00:25 1.1 °F -2.9 °F 30.07 in NW 14 mph 19 mph 83% 0 in 0.00 W/m2
00:30 1 °F -3 °F 30.07 in NW 18 mph 20 mph 83% 0 in 0.00 W/m2
00:35 0.9 °F -3.1 °F 30.07 in NW 13 mph 21 mph 83% 0 in 0.00 W/m2
00:40 0.8 °F -3.2 °F 30.07 in NW 16 mph 21 mph 83% 0 in 0.00 W/m2
00:45 0.7 °F -3.3 °F 30.07 in NW 11 mph 20 mph 83% 0 in 0.00 W/m2
00:50 0.6 °F -3.3 °F 30.07 in NW 13 mph 21 mph 83% 0 in 0.00 W/m2
00:55 0.5 °F -3.4 °F 30.08 in West 13 mph 21 mph 83% 0 in 0.00 W/m2
01:00 0.5 °F -3.4 °F 30.08 in WNW 12 mph 21 mph 83% 0 in 0.00 W/m2
01:05 0.4 °F -3.5 °F 30.09 in WNW 12 mph 21 mph 83% 0 in 0.00 W/m2
01:10 0.3 °F -3.6 °F 30.09 in WNW 17 mph 22 mph 83% 0 in 0.00 W/m2
01:15 0.2 °F -4 °F 30.09 in WNW 17 mph 24 mph 82% 0 in 0.00 W/m2
01:20 0 °F -4.2 °F 30.09 in West 17 mph 24 mph 82% 0 in 0.00 W/m2
01:25 -0.4 °F -4.6 °F 30.10 in NW 16 mph 26 mph 82% 0 in 0.00 W/m2
01:30 -0.5 °F -4.7 °F 30.10 in NW 13 mph 26 mph 82% 0 in 0.00 W/m2
01:35 -0.7 °F -5.1 °F 30.10 in NW 17 mph 24 mph 81% 0 in 0.00 W/m2
01:40 -0.9 °F -5.3 °F 30.10 in WNW 13 mph 23 mph 81% 0 in 0.00 W/m2
01:45 -1.2 °F -5.6 °F 30.10 in WNW 15 mph 24 mph 81% 0 in 0.00 W/m2
01:50 -1.3 °F -5.7 °F 30.10 in WNW 12 mph 24 mph 81% 0 in 0.00 W/m2
01:55 -1.5 °F -5.9 °F 30.11 in NW 19 mph 24 mph 81% 0 in 0.00 W/m2
02:00 -1.7 °F -6.1 °F 30.11 in WNW 16 mph 24 mph 81% 0 in 0.00 W/m2
02:05 -1.9 °F -6.3 °F 30.11 in NW 17 mph 20 mph 81% 0 in 0.00 W/m2
02:10 -2 °F -6.4 °F 30.12 in WNW 20 mph 20 mph 81% 0 in 0.00 W/m2
02:15 -2.1 °F -6.8 °F 30.12 in NW 18 mph 23 mph 80% 0 in 0.00 W/m2
02:20 -2.3 °F -7 °F 30.12 in WNW 18 mph 24 mph 80% 0 in 0.00 W/m2
02:25 -2.5 °F -7.1 °F 30.13 in WNW 16 mph 24 mph 80% 0 in 0.00 W/m2
02:30 -2.8 °F -7.4 °F 30.13 in WNW 17 mph 24 mph 80% 0 in 0.00 W/m2
02:35 -3 °F -7.6 °F 30.13 in NW 17 mph 24 mph 80% 0 in 0.00 W/m2
02:40 -3.1 °F -7.7 °F 30.14 in WNW 14 mph 24 mph 80% 0 in 0.00 W/m2
02:45 -3.3 °F -7.9 °F 30.14 in WNW 11 mph 21 mph 80% 0 in 0.00 W/m2
02:50 -3.4 °F -8 °F 30.14 in WNW 11 mph 21 mph 80% 0 in 0.00 W/m2
02:55 -3.6 °F -8 °F 30.14 in WNW 9 mph 21 mph 81% 0 in 0.00 W/m2
03:00 -3.9 °F -8.3 °F 30.14 in NW 9 mph 17 mph 81% 0 in 0.00 W/m2
03:05 -4 °F -8.6 °F 30.14 in WNW 14 mph 17 mph 80% 0 in 0.00 W/m2
03:10 -4.1 °F -8.7 °F 30.14 in NW 10 mph 18 mph 80% 0 in 0.00 W/m2
03:15 -4.3 °F -8.9 °F 30.14 in WNW 11 mph 18 mph 80% 0 in 0.00 W/m2
03:20 -4.5 °F -9.4 °F 30.14 in NW 11 mph 18 mph 79% 0 in 0.00 W/m2
03:25 -4.7 °F -9.6 °F 30.15 in WNW 12 mph 18 mph 79% 0 in 0.00 W/m2
03:30 -4.8 °F -9.7 °F 30.14 in WNW 17 mph 18 mph 79% 0 in 0.00 W/m2
03:35 -5 °F -9.8 °F 30.14 in NW 18 mph 20 mph 79% 0 in 0.00 W/m2
03:40 -5.2 °F -10 °F 30.15 in WNW 15 mph 20 mph 79% 0 in 0.00 W/m2
03:45 -5.2 °F -10 °F 30.14 in NW 20 mph 21 mph 79% 0 in 0.00 W/m2
03:50 -5.4 °F -10.5 °F 30.14 in NW 14 mph 21 mph 78% 0 in 0.00 W/m2
03:55 -5.6 °F -10.4 °F 30.14 in NW 17 mph 23 mph 79% 0 in 0.00 W/m2
04:00 -5.8 °F -10.9 °F 30.14 in NW 17 mph 24 mph 78% 0 in 0.00 W/m2
04:05 -5.9 °F -11 °F 30.14 in NW 16 mph 24 mph 78% 0 in 0.00 W/m2
04:10 -6.1 °F -11.2 °F 30.14 in NW 16 mph 24 mph 78% 0 in 0.00 W/m2
04:15 -6.3 °F -11.4 °F 30.14 in NW 15 mph 24 mph 78% 0 in 0.00 W/m2
04:20 -6.5 °F -11.6 °F 30.14 in NW 15 mph 22 mph 78% 0 in 0.00 W/m2
04:25 -6.5 °F -11.6 °F 30.15 in NW 14 mph 22 mph 78% 0 in 0.00 W/m2
04:30 -6.6 °F -11.9 °F 30.16 in WNW 19 mph 22 mph 77% 0 in 0.00 W/m2
04:35 -6.7 °F -12 °F 30.16 in NW 19 mph 26 mph 77% 0 in 0.00 W/m2
04:40 -6.8 °F -11.9 °F 30.16 in WNW 18 mph 26 mph 78% 0 in 0.00 W/m2
04:45 -7 °F -12.1 °F 30.16 in WNW 17 mph 23 mph 78% 0 in 0.00 W/m2
04:50 -7.2 °F -12.5 °F 30.17 in West 17 mph 26 mph 77% 0 in 0.00 W/m2
04:55 -7.4 °F -12.7 °F 30.18 in WNW 16 mph 26 mph 77% 0 in 0.00 W/m2
05:00 -7.6 °F -12.9 °F 30.18 in WNW 15 mph 20 mph 77% 0 in 0.00 W/m2
05:05 -7.7 °F -13 °F 30.18 in NW 13 mph 19 mph 77% 0 in 0.00 W/m2
05:10 -7.8 °F -13.1 °F 30.18 in NW 13 mph 19 mph 77% 0 in 0.00 W/m2
05:15 -8 °F -13.3 °F 30.18 in NW 13 mph 21 mph 77% 0 in 0.00 W/m2
05:20 -8 °F -13.3 °F 30.18 in West 7 mph 21 mph 77% 0 in 0.00 W/m2
05:25 -8.2 °F -13.5 °F 30.19 in WNW 8 mph 18 mph 77% 0 in 0.00 W/m2
05:30 -8.3 °F -13.6 °F 30.18 in WNW 10 mph 18 mph 77% 0 in 0.00 W/m2
05:35 -8.5 °F -13.5 °F 30.19 in WNW 8 mph 18 mph 78% 0 in 0.00 W/m2
05:40 -8.6 °F -13.6 °F 30.18 in NW 12 mph 16 mph 78% 0 in 0.00 W/m2
05:45 -8.8 °F -14.1 °F 30.18 in WNW 17 mph 21 mph 77% 0 in 0.00 W/m2
05:50 -8.8 °F -14.1 °F 30.18 in NW 14 mph 21 mph 77% 0 in 0.00 W/m2
05:55 -9 °F -14.5 °F 30.19 in WNW 11 mph 21 mph 76% 0 in 0.00 W/m2
06:00 -9.2 °F -14.7 °F 30.18 in NW 16 mph 20 mph 76% 0 in 0.00 W/m2
06:05 -9.3 °F -14.8 °F 30.17 in NW 20 mph 22 mph 76% 0 in 0.00 W/m2
06:10 -9.4 °F -14.9 °F 30.17 in NW 14 mph 26 mph 76% 0 in 0.00 W/m2
06:15 -9.5 °F -15 °F 30.17 in NW 18 mph 26 mph 76% 0 in 0.00 W/m2
06:20 -9.7 °F -15.5 °F 30.18 in NW 14 mph 26 mph 75% 0 in 0.00 W/m2
06:25 -9.9 °F -15.7 °F 30.18 in NW 16 mph 24 mph 75% 0 in 0.00 W/m2
06:30 -9.9 °F -15.4 °F 30.18 in WNW 12 mph 24 mph 76% 0 in 0.00 W/m2
06:35 -10 °F -15.5 °F 30.18 in NW 12 mph 24 mph 76% 0 in 0.00 W/m2
06:40 -10.1 °F -15.6 °F 30.18 in NW 9 mph 24 mph 76% 0 in 0.00 W/m2
06:45 -10.2 °F -15.7 °F 30.18 in NW 12 mph 14 mph 76% 0 in 0.00 W/m2
06:50 -10.4 °F -15.9 °F 30.19 in NW 9 mph 14 mph 76% 0 in 0.00 W/m2
06:55 -10.4 °F -16.1 °F 30.19 in NW 7 mph 14 mph 75% 0 in 0.00 W/m2
07:00 -10.5 °F -16.2 °F 30.20 in WNW 13 mph 18 mph 75% 0 in 0.00 W/m2
07:05 -10.7 °F -16.4 °F 30.20 in NW 12 mph 18 mph 75% 0 in 0.00 W/m2
07:10 -10.7 °F -16.4 °F 30.21 in WNW 11 mph 17 mph 75% 0 in 0.00 W/m2
07:15 -10.8 °F -16.5 °F 30.21 in West 7 mph 15 mph 75% 0 in 0.00 W/m2
07:20 -10.9 °F -16.6 °F 30.21 in NW 10 mph 15 mph 75% 0 in 0.00 W/m2
07:25 -10.9 °F -16.9 °F 30.21 in NW 11 mph 16 mph 74% 0 in 0.00 W/m2
07:30 -11 °F -17 °F 30.21 in NW 9 mph 16 mph 74% 0 in 0.00 W/m2
07:35 -11 °F -17 °F 30.21 in WNW 10 mph 15 mph 74% 0 in 0.00 W/m2
07:40 -11 °F -17 °F 30.21 in NW 12 mph 20 mph 74% 0 in 0.00 W/m2
07:45 -11 °F -17 °F 30.22 in WNW 8 mph 20 mph 74% 0 in 0.00 W/m2
07:50 -11.1 °F -17.1 °F 30.21 in WNW 8 mph 20 mph 74% 0 in 0.00 W/m2
07:55 -11.1 °F -17.1 °F 30.22 in NNW 13 mph 20 mph 74% 0 in 0.00 W/m2
08:00 -11.2 °F -17.2 °F 30.22 in NW 8 mph 16 mph 74% 0 in 0.00 W/m2
08:05 -11.4 °F -17.4 °F 30.22 in NW 11 mph 16 mph 74% 0 in 0.00 W/m2
08:10 -11.3 °F -17.3 °F 30.23 in NW 9 mph 17 mph 74% 0 in 0.00 W/m2
08:15 -11.4 °F -17.4 °F 30.22 in WNW 10 mph 17 mph 74% 0 in 0.00 W/m2
08:20 -11.5 °F -17.5 °F 30.22 in NW 9 mph 15 mph 74% 0 in 5.00 W/m2
08:25 -11.6 °F -17.6 °F 30.22 in NW 13 mph 15 mph 74% 0 in 7.00 W/m2
08:30 -11.7 °F -17.7 °F 30.22 in NW 12 mph 15 mph 74% 0 in 9.00 W/m2
08:35 -11.8 °F -17.8 °F 30.21 in NW 9 mph 16 mph 74% 0 in 12.00 W/m2
08:40 -11.8 °F -17.8 °F 30.21 in NW 15 mph 19 mph 74% 0 in 16.00 W/m2
08:45 -11.8 °F -17.8 °F 30.21 in NW 17 mph 21 mph 74% 0 in 18.00 W/m2
08:50 -11.8 °F -17.8 °F 30.21 in NW 11 mph 21 mph 74% 0 in 21.00 W/m2
08:55 -11.8 °F -17.8 °F 30.23 in WNW 8 mph 21 mph 74% 0 in 25.00 W/m2
09:00 -11.8 °F -17.8 °F 30.23 in NW 7 mph 21 mph 74% 0 in 28.00 W/m2
09:05 -11.8 °F -17.8 °F 30.23 in NW 8 mph 13 mph 74% 0 in 32.00 W/m2
09:10 -11.9 °F -17.9 °F 30.24 in NW 6 mph 13 mph 74% 0 in 32.00 W/m2
09:15 -11.9 °F -17.9 °F 30.25 in NW 9 mph 15 mph 74% 0 in 33.00 W/m2
09:20 -12 °F -18 °F 30.25 in NW 7 mph 15 mph 74% 0 in 40.00 W/m2
09:25 -11.9 °F -17.9 °F 30.24 in NW 9 mph 15 mph 74% 0 in 46.00 W/m2
09:30 -11.8 °F -17.8 °F 30.24 in WNW 5 mph 15 mph 74% 0 in 65.00 W/m2
09:35 -11.6 °F -17.6 °F 30.24 in NW 10 mph 11 mph 74% 0 in 77.00 W/m2
09:40 -11.6 °F -17.8 °F 30.24 in NW 6 mph 11 mph 73% 0 in 90.00 W/m2
09:45 -11.6 °F -17.8 °F 30.25 in WNW 4 mph 11 mph 73% 0 in 105.00 W/m2
09:50 -11.5 °F -17.7 °F 30.25 in WNW 8 mph 11 mph 73% 0 in 120.00 W/m2
09:55 -11.4 °F -17.6 °F 30.25 in NW 5 mph 11 mph 73% 0 in 137.00 W/m2
10:00 -11.1 °F -17.4 °F 30.26 in NW 4 mph 11 mph 73% 0 in 151.00 W/m2
10:05 -11 °F -17.3 °F 30.25 in WNW 5 mph 8 mph 73% 0 in 162.00 W/m2
10:10 -11 °F -17.3 °F 30.26 in NW 5 mph 8 mph 73% 0 in 174.00 W/m2
10:15 -10.9 °F -17.2 °F 30.26 in WNW 7 mph 8 mph 73% 0 in 188.00 W/m2
10:20 -11 °F -17.5 °F 30.26 in WNW 7 mph 8 mph 72% 0 in 200.00 W/m2
10:25 -11 °F -17.5 °F 30.26 in WNW 7 mph 7 mph 72% 0 in 213.00 W/m2
10:30 -10.9 °F -17.4 °F 30.26 in NW 6 mph 10 mph 72% 0 in 225.00 W/m2
10:35 -10.9 °F -17.4 °F 30.27 in WNW 9 mph 11 mph 72% 0 in 236.00 W/m2
10:40 -10.8 °F -17.3 °F 30.27 in NW 7 mph 11 mph 72% 0 in 246.00 W/m2
10:45 -10.7 °F -17.2 °F 30.27 in NW 9 mph 11 mph 72% 0 in 257.00 W/m2
10:50 -10.7 °F -17.2 °F 30.28 in WNW 9 mph 12 mph 72% 0 in 267.00 W/m2
10:55 -10.6 °F -17.1 °F 30.27 in NW 8 mph 12 mph 72% 0 in 278.00 W/m2
11:00 -10.5 °F -17.3 °F 30.28 in NW 9 mph 11 mph 71% 0 in 287.00 W/m2
11:05 -10.4 °F -17.2 °F 30.28 in WNW 7 mph 12 mph 71% 0 in 292.00 W/m2
11:10 -10.2 °F -17 °F 30.28 in WNW 10 mph 12 mph 71% 0 in 302.00 W/m2
11:15 -10.2 °F -17 °F 30.28 in WNW 8 mph 12 mph 71% 0 in 309.00 W/m2
11:20 -10 °F -16.8 °F 30.28 in WNW 8 mph 12 mph 71% 0 in 316.00 W/m2
11:25 -9.7 °F -16.8 °F 30.28 in WNW 8 mph 11 mph 70% 0 in 322.00 W/m2
11:30 -9.5 °F -16.6 °F 30.28 in WNW 5 mph 11 mph 70% 0 in 329.00 W/m2
11:35 -9.6 °F -16.7 °F 30.27 in NW 3 mph 11 mph 70% 0 in 334.00 W/m2
11:40 -9.4 °F -16.5 °F 30.27 in WNW 7 mph 11 mph 70% 0 in 339.00 W/m2
11:45 -9.4 °F -16.5 °F 30.27 in NW 5 mph 10 mph 70% 0 in 345.00 W/m2
11:50 -9.5 °F -16.6 °F 30.26 in NW 9 mph 12 mph 70% 0 in 350.00 W/m2
11:55 -9.4 °F -16.5 °F 30.26 in NNW 9 mph 14 mph 70% 0 in 353.00 W/m2
12:00 -9.3 °F -16.4 °F 30.26 in NW 12 mph 14 mph 70% 0 in 357.00 W/m2
12:05 -9.2 °F -16.3 °F 30.25 in NW 8 mph 14 mph 70% 0 in 362.00 W/m2
12:10 -9.1 °F -16 °F 30.24 in NNW 13 mph 16 mph 71% 0 in 367.00 W/m2
12:15 -8.8 °F -15.7 °F 30.25 in WNW 8 mph 16 mph 71% 0 in 369.00 W/m2
12:20 -8.6 °F -15.5 °F 30.25 in NW 10 mph 15 mph 71% 0 in 373.00 W/m2
12:25 -8.4 °F -15.6 °F 30.25 in NW 10 mph 16 mph 70% 0 in 374.00 W/m2
12:30 -8.6 °F -16 °F 30.26 in NW 10 mph 16 mph 69% 0 in 378.00 W/m2
12:35 -8.3 °F -15.2 °F 30.25 in NW 10 mph 16 mph 71% 0 in 380.00 W/m2
12:40 -8.1 °F -15.3 °F 30.25 in NW 10 mph 16 mph 70% 0 in 380.00 W/m2
12:45 -8.1 °F -15.6 °F 30.25 in NW 10 mph 16 mph 69% 0 in 381.00 W/m2
12:50 -7.6 °F -15.1 °F 30.25 in NW 10 mph 16 mph 69% 0 in 383.00 W/m2
12:55 -7.4 °F -14.9 °F 30.26 in NW 10 mph 16 mph 69% 0 in 383.00 W/m2
13:00 -7.7 °F -15.5 °F 30.26 in NW 10 mph 16 mph 68% 0 in 369.00 W/m2
13:05 -7.8 °F -15.6 °F 30.25 in NW 10 mph 16 mph 68% 0 in 357.00 W/m2
13:10 -8 °F -15.8 °F 30.26 in NW 10 mph 16 mph 68% 0 in 355.00 W/m2
13:15 -8 °F -15.8 °F 30.26 in NW 10 mph 16 mph 68% 0 in 378.00 W/m2
13:20 -7.7 °F -15.2 °F 30.27 in NW 10 mph 16 mph 69% 0 in 366.00 W/m2
13:25 -7.4 °F -14.9 °F 30.27 in NW 10 mph 16 mph 69% 0 in 373.00 W/m2
13:30 -7.3 °F -15.1 °F 30.27 in NW 10 mph 16 mph 68% 0 in 376.00 W/m2
13:35 -7.1 °F -14.6 °F 30.27 in NNW 5 mph 9 mph 69% 0 in 352.00 W/m2
13:40 -7.2 °F -15 °F 30.26 in WNW 3 mph 9 mph 68% 0 in 327.00 W/m2
13:45 -7.2 °F -14.7 °F 30.26 in WNW 3 mph 9 mph 69% 0 in 308.00 W/m2
13:50 -7.1 °F -14.3 °F 30.25 in NW 4 mph 9 mph 70% 0 in 327.00 W/m2
13:55 -6.8 °F -14 °F 30.24 in NW 5 mph 9 mph 70% 0 in 316.00 W/m2
14:00 -6.7 °F -13.9 °F 30.24 in NNW 8 mph 11 mph 70% 0 in 336.00 W/m2
14:05 -6.1 °F -13.1 °F 30.23 in NNW 10 mph 11 mph 71% 0 in 327.00 W/m2
14:10 -6 °F -13.5 °F 30.23 in NNW 9 mph 11 mph 69% 0 in 352.00 W/m2
14:15 -6.4 °F -13.9 °F 30.23 in NNW 9 mph 15 mph 69% 0 in 341.00 W/m2
14:20 -6.3 °F -13.5 °F 30.23 in NNW 10 mph 15 mph 70% 0 in 338.00 W/m2
14:25 -6.1 °F -13.6 °F 30.24 in NW 8 mph 14 mph 69% 0 in 338.00 W/m2
14:30 -6.4 °F -13.9 °F 30.24 in NNW 9 mph 14 mph 69% 0 in 325.00 W/m2
14:35 -5.8 °F -13.1 °F 30.23 in North 10 mph 12 mph 70% 0 in 318.00 W/m2
14:40 -4.9 °F -12.5 °F 30.23 in NW 10 mph 12 mph 69% 0 in 288.00 W/m2
14:45 -5.3 °F -13.2 °F 30.23 in NNW 8 mph 12 mph 68% 0 in 327.00 W/m2
14:50 -5.5 °F -13.3 °F 30.24 in NNW 10 mph 12 mph 68% 0 in 209.00 W/m2
14:55 -5.5 °F -13.3 °F 30.24 in NNW 8 mph 11 mph 68% 0 in 206.00 W/m2
15:00 -5.4 °F -13.3 °F 30.23 in NNW 6 mph 13 mph 68% 0 in 162.00 W/m2
15:05 -5.8 °F -13.6 °F 30.24 in NW 10 mph 14 mph 68% 0 in 151.00 W/m2
15:10 -5.9 °F -13.7 °F 30.24 in North 6 mph 14 mph 68% 0 in 158.00 W/m2
15:15 -5.5 °F -13.1 °F 30.23 in North 9 mph 14 mph 69% 0 in 179.00 W/m2
15:20 -5.1 °F -13 °F 30.23 in NNW 13 mph 14 mph 68% 0 in 195.00 W/m2
15:25 -4.9 °F -13.1 °F 30.23 in North 10 mph 14 mph 67% 0 in 214.00 W/m2
15:30 -5 °F -13.2 °F 30.22 in NNW 11 mph 14 mph 67% 0 in 193.00 W/m2
15:35 -4.8 °F -13 °F 30.21 in NNW 8 mph 14 mph 67% 0 in 232.00 W/m2
15:40 -4.5 °F -12.7 °F 30.22 in North 10 mph 14 mph 67% 0 in 179.00 W/m2
15:45 -4.6 °F -12.8 °F 30.22 in North 6 mph 12 mph 67% 0 in 137.00 W/m2
15:50 -4.8 °F -12.7 °F 30.22 in NNW 4 mph 12 mph 68% 0 in 118.00 W/m2
15:55 -4.7 °F -12.3 °F 30.21 in North 5 mph 12 mph 69% 0 in 111.00 W/m2
16:00 -4.6 °F -12.2 °F 30.21 in North 8 mph 11 mph 69% 0 in 97.00 W/m2
16:05 -4.4 °F -12 °F 30.21 in NNW 6 mph 11 mph 69% 0 in 84.00 W/m2
16:10 -4.6 °F -12.5 °F 30.22 in NNW 5 mph 12 mph 68% 0 in 109.00 W/m2
16:15 -4.6 °F -12.5 °F 30.22 in North 12 mph 15 mph 68% 0 in 91.00 W/m2
16:20 -4.7 °F -12.6 °F 30.23 in North 13 mph 15 mph 68% 0 in 81.00 W/m2
16:25 -4.8 °F -12.7 °F 30.22 in North 11 mph 15 mph 68% 0 in 54.00 W/m2
16:30 -5.2 °F -13.1 °F 30.22 in North 12 mph 15 mph 68% 0 in 37.00 W/m2
16:35 -5.5 °F -13.1 °F 30.23 in North 9 mph 15 mph 69% 0 in 37.00 W/m2
16:40 -5.5 °F -12.8 °F 30.23 in North 5 mph 15 mph 70% 0 in 35.00 W/m2
16:45 -5.6 °F -13.2 °F 30.23 in North 12 mph 14 mph 69% 0 in 35.00 W/m2
16:50 -5.7 °F -13 °F 30.23 in North 9 mph 14 mph 70% 0 in 32.00 W/m2
16:55 -5.7 °F -13 °F 30.23 in North 10 mph 14 mph 70% 0 in 25.00 W/m2
17:00 -5.8 °F -13.1 °F 30.24 in NNW 9 mph 14 mph 70% 0 in 18.00 W/m2
17:05 -5.9 °F -13.2 °F 30.25 in NNW 12 mph 13 mph 70% 0 in 12.00 W/m2
17:10 -6 °F -13 °F 30.25 in NNW 6 mph 15 mph 71% 0 in 9.00 W/m2
17:15 -6 °F -13 °F 30.25 in NNW 11 mph 15 mph 71% 0 in 5.00 W/m2
17:20 -6.1 °F -13.1 °F 30.25 in North 11 mph 15 mph 71% 0 in 5.00 W/m2
17:25 -6.1 °F -13.1 °F 30.26 in North 10 mph 15 mph 71% 0 in 0.00 W/m2
17:30 -6.3 °F -13.3 °F 30.26 in North 10 mph 15 mph 71% 0 in 0.00 W/m2
17:35 -6.5 °F -13.7 °F 30.26 in North 10 mph 15 mph 70% 0 in 0.00 W/m2
17:40 -6.6 °F -13.8 °F 30.26 in North 14 mph 15 mph 70% 0 in 0.00 W/m2
17:45 -6.8 °F -14 °F 30.26 in North 8 mph 15 mph 70% 0 in 0.00 W/m2
17:50 -6.9 °F -14.1 °F 30.27 in North 6 mph 15 mph 70% 0 in 0.00 W/m2
17:55 -7 °F -13.9 °F 30.27 in NNW 6 mph 14 mph 71% 0 in 0.00 W/m2
18:00 -7.2 °F -14.4 °F 30.28 in North 12 mph 14 mph 70% 0 in 0.00 W/m2
18:05 -7.2 °F -14.1 °F 30.27 in North 11 mph 14 mph 71% 0 in 0.00 W/m2
18:10 -7.1 °F -14 °F 30.27 in North 9 mph 14 mph 71% 0 in 0.00 W/m2
18:15 -7.1 °F -14 °F 30.27 in North 10 mph 14 mph 71% 0 in 0.00 W/m2
18:20 -7.1 °F -14 °F 30.27 in North 10 mph 14 mph 71% 0 in 0.00 W/m2
18:25 -7.1 °F -14 °F 30.27 in North 8 mph 14 mph 71% 0 in 0.00 W/m2
18:30 -7 °F -13.9 °F 30.27 in ENE 8 mph 14 mph 71% 0 in 0.00 W/m2
18:35 -7 °F -13.9 °F 30.27 in NNW 8 mph 12 mph 71% 0 in 0.00 W/m2
18:40 -7 °F -13.9 °F 30.27 in North 8 mph 12 mph 71% 0 in 0.00 W/m2
18:45 -7.1 °F -14 °F 30.27 in North 10 mph 12 mph 71% 0 in 0.00 W/m2
18:50 -7 °F -13.9 °F 30.27 in North 7 mph 11 mph 71% 0 in 0.00 W/m2
18:55 -7 °F -13.7 °F 30.27 in North 5 mph 11 mph 72% 0 in 0.00 W/m2
19:00 -7 °F -13.7 °F 30.27 in NNE 5 mph 10 mph 72% 0 in 0.00 W/m2
19:05 -6.9 °F -13.3 °F 30.27 in NNE 7 mph 11 mph 73% 0 in 0.00 W/m2
19:10 -6.8 °F -13.5 °F 30.27 in North 8 mph 11 mph 72% 0 in 0.00 W/m2
19:15 -6.7 °F -13.4 °F 30.27 in North 9 mph 11 mph 72% 0 in 0.00 W/m2
19:20 -6.5 °F -13.2 °F 30.28 in North 5 mph 11 mph 72% 0 in 0.00 W/m2
19:25 -6.4 °F -13.1 °F 30.27 in North 6 mph 11 mph 72% 0 in 0.00 W/m2
19:30 -6.3 °F -13 °F 30.27 in NNE 8 mph 11 mph 72% 0 in 0.00 W/m2
19:35 -6.2 °F -12.9 °F 30.28 in NNE 4 mph 11 mph 72% 0 in 0.00 W/m2
19:40 -6.1 °F -12.8 °F 30.28 in North 5 mph 10 mph 72% 0 in 0.00 W/m2
19:45 -6.1 °F -13.1 °F 30.28 in NNE 9 mph 10 mph 71% 0 in 0.00 W/m2
19:50 -6.1 °F -13.1 °F 30.28 in North 7 mph 11 mph 71% 0 in 0.00 W/m2
19:55 -6 °F -13 °F 30.28 in North 8 mph 11 mph 71% 0 in 0.00 W/m2
20:00 -6.1 °F -13.1 °F 30.28 in NNW 11 mph 12 mph 71% 0 in 0.00 W/m2
20:05 -6.1 °F -13.1 °F 30.29 in NNW 6 mph 12 mph 71% 0 in 0.00 W/m2
20:10 -6 °F -12.7 °F 30.29 in NNE 7 mph 10 mph 72% 0 in 0.00 W/m2
20:15 -6 °F -12.7 °F 30.29 in NNE 8 mph 11 mph 72% 0 in 0.00 W/m2
20:20 -6 °F -13 °F 30.29 in NNE 9 mph 11 mph 71% 0 in 0.00 W/m2
20:25 -6 °F -12.7 °F 30.28 in North 9 mph 12 mph 72% 0 in 0.00 W/m2
20:30 -6 °F -13 °F 30.28 in North 4 mph 12 mph 71% 0 in 0.00 W/m2
20:35 -6 °F -12.7 °F 30.28 in North 10 mph 11 mph 72% 0 in 0.00 W/m2
20:40 -6.1 °F -13.1 °F 30.28 in North 12 mph 12 mph 71% 0 in 0.00 W/m2
20:45 -6.3 °F -13.3 °F 30.28 in North 8 mph 12 mph 71% 0 in 0.00 W/m2
20:50 -6.2 °F -12.9 °F 30.28 in North 8 mph 12 mph 72% 0 in 0.00 W/m2
20:55 -6.1 °F -12.8 °F 30.28 in NNE 9 mph 11 mph 72% 0 in 0.00 W/m2
21:00 -6.1 °F -12.8 °F 30.28 in North 8 mph 11 mph 72% 0 in 0.00 W/m2
21:05 -6 °F -12.7 °F 30.28 in NNE 7 mph 11 mph 72% 0 in 0.00 W/m2
21:10 -6 °F -12.7 °F 30.30 in North 6 mph 11 mph 72% 0 in 0.00 W/m2
21:15 -6 °F -13 °F 30.30 in NNE 9 mph 11 mph 71% 0 in 0.00 W/m2
21:20 -6 °F -13 °F 30.30 in NNE 7 mph 11 mph 71% 0 in 0.00 W/m2
21:25 -5.9 °F -12.6 °F 30.30 in North 5 mph 11 mph 72% 0 in 0.00 W/m2
21:30 -5.9 °F -12.6 °F 30.31 in NW 8 mph 9 mph 72% 0 in 0.00 W/m2
21:35 -6 °F -12.7 °F 30.32 in NNW 11 mph 11 mph 72% 0 in 0.00 W/m2
21:40 -6.1 °F -13.1 °F 30.33 in NNW 8 mph 11 mph 71% 0 in 0.00 W/m2
21:45 -6.1 °F -12.8 °F 30.32 in NNW 4 mph 11 mph 72% 0 in 0.00 W/m2
21:50 -6.1 °F -12.5 °F 30.32 in NNE 10 mph 11 mph 73% 0 in 0.00 W/m2
21:55 -5.9 °F -12.3 °F 30.31 in North 8 mph 12 mph 73% 0 in 0.00 W/m2
22:00 -5.9 °F -12.3 °F 30.31 in NNW 6 mph 12 mph 73% 0 in 0.00 W/m2
22:05 -6.1 °F -12.5 °F 30.32 in North 10 mph 12 mph 73% 0 in 0.00 W/m2
22:10 -6.1 °F -12.5 °F 30.32 in North 8 mph 12 mph 73% 0 in 0.00 W/m2
22:15 -6.2 °F -12.6 °F 30.32 in NNW 8 mph 12 mph 73% 0 in 0.00 W/m2
22:20 -6.4 °F -12.8 °F 30.31 in NNE 8 mph 13 mph 73% 0 in 0.00 W/m2
22:25 -6.4 °F -12.8 °F 30.30 in North 9 mph 13 mph 73% 0 in 0.00 W/m2
22:30 -6.5 °F -12.4 °F 30.30 in NNE 6 mph 13 mph 75% 0 in 0.00 W/m2
22:35 -6.4 °F -12.3 °F 30.30 in NNW 10 mph 12 mph 75% 0 in 0.00 W/m2
22:40 -6.6 °F -12.5 °F 30.31 in NNW 10 mph 13 mph 75% 0 in 0.00 W/m2
22:45 -6.7 °F -12.8 °F 30.31 in NNW 9 mph 13 mph 74% 0 in 0.00 W/m2
22:50 -6.8 °F -12.6 °F 30.33 in NNW 11 mph 13 mph 75% 0 in 0.00 W/m2
22:55 -7.2 °F -13.3 °F 30.33 in NNW 9 mph 13 mph 74% 0 in 0.00 W/m2
23:00 -7.1 °F -12.9 °F 30.33 in NNW 6 mph 13 mph 75% 0 in 0.00 W/m2
23:05 -7.1 °F -12.9 °F 30.33 in North 5 mph 12 mph 75% 0 in 0.00 W/m2
23:10 -7 °F -12.8 °F 30.33 in NNW 11 mph 12 mph 75% 0 in 0.00 W/m2
23:15 -6.9 °F -12.5 °F 30.33 in North 9 mph 13 mph 76% 0 in 0.00 W/m2
23:20 -6.9 °F -12.7 °F 30.33 in North 8 mph 13 mph 75% 0 in 0.00 W/m2
23:25 -6.9 °F -12.5 °F 30.33 in NNW 8 mph 13 mph 76% 0 in 0.00 W/m2
23:30 -7 °F -12.8 °F 30.33 in NNW 8 mph 13 mph 75% 0 in 0.00 W/m2
23:35 -7.1 °F -12.9 °F 30.33 in NW 9 mph 13 mph 75% 0 in 0.00 W/m2
23:40 -7.1 °F -12.7 °F 30.33 in NNW 8 mph 12 mph 76% 0 in 0.00 W/m2
23:45 -7.1 °F -12.7 °F 30.34 in NNW 9 mph 12 mph 76% 0 in 0.00 W/m2
23:50 -7.1 °F -12.4 °F 30.33 in NNW 9 mph 12 mph 77% 0 in 0.00 W/m2
23:55 -7.1 °F -12.7 °F 30.33 in NNW 13 mph 14 mph 76% 0 in 0.00 W/m2
Bismarck, North Dakota, USA
Compliments of Weather Underground - 4 mb